createdAt,value
2023-09-08T00:02:34.718Z,24.72
2023-09-08T00:07:37.712Z,24.19
2023-09-08T00:12:42.201Z,24.49
2023-09-08T00:17:45.270Z,24.12
2023-09-08T00:22:48.561Z,24.00
2023-09-08T00:27:53.099Z,24.28
2023-09-08T00:32:56.230Z,24.34
2023-09-08T00:37:59.405Z,24.31
2023-09-08T00:43:03.794Z,24.15
2023-09-08T00:48:08.688Z,24.00
2023-09-08T00:53:11.913Z,24.03
2023-09-08T00:58:16.396Z,24.15
2023-09-08T01:03:19.467Z,24.14
2023-09-08T01:08:22.628Z,24.01
2023-09-08T01:13:27.007Z,23.50
2023-09-08T01:18:30.109Z,23.64
2023-09-08T01:23:39.614Z,23.63
2023-09-08T01:28:44.112Z,23.38
2023-09-08T01:33:48.876Z,23.17
2023-09-08T01:38:52.036Z,23.17
2023-09-08T01:43:56.946Z,22.99
2023-09-08T01:48:59.890Z,23.43
2023-09-08T01:54:02.895Z,23.49
2023-09-08T01:59:07.280Z,23.54
2023-09-08T02:04:10.310Z,23.59
2023-09-08T02:09:15.974Z,23.59
2023-09-08T02:14:20.320Z,23.71
2023-09-08T02:19:23.363Z,23.71
2023-09-08T02:24:26.385Z,23.76
2023-09-08T02:29:33.094Z,23.62
2023-09-08T02:34:38.243Z,23.58
2023-09-08T02:39:43.043Z,23.61
2023-09-08T02:44:48.033Z,23.62
2023-09-08T02:49:51.272Z,23.60
2023-09-08T02:54:54.306Z,23.58
2023-09-08T02:59:58.597Z,23.57
2023-09-08T03:05:01.631Z,23.49
2023-09-08T03:10:05.782Z,23.50
2023-09-08T03:15:11.233Z,23.52
2023-09-08T03:20:15.537Z,23.48
2023-09-08T03:25:18.562Z,23.51
2023-09-08T03:30:22.994Z,23.23
2023-09-08T03:35:26.211Z,22.48
2023-09-08T03:40:29.223Z,22.32
2023-09-08T03:45:35.163Z,22.64
2023-09-08T03:50:38.234Z,21.21
2023-09-08T03:55:41.238Z,21.53
2023-09-08T04:00:45.624Z,21.21
2023-09-08T04:05:48.763Z,21.04
2023-09-08T04:10:51.685Z,21.43
2023-09-08T04:15:56.326Z,22.23
2023-09-08T04:20:59.438Z,21.66
2023-09-08T04:26:03.119Z,20.61
2023-09-08T04:31:07.531Z,21.20
2023-09-08T04:36:12.203Z,21.64
2023-09-08T04:41:15.262Z,20.70
2023-09-08T04:46:19.830Z,20.11
2023-09-08T04:51:23.076Z,20.67
2023-09-08T04:56:26.537Z,21.30
2023-09-08T05:01:33.584Z,20.94
2023-09-08T05:06:38.365Z,21.01
2023-09-08T05:11:41.701Z,21.04
2023-09-08T05:16:50.355Z,21.19
2023-09-08T05:21:57.852Z,20.83
2023-09-08T05:27:01.025Z,21.00
2023-09-08T05:32:06.230Z,21.13
2023-09-08T05:37:09.790Z,21.24
2023-09-08T05:42:12.876Z,20.49
2023-09-08T05:47:17.507Z,19.38
2023-09-08T05:52:21.669Z,19.31
2023-09-08T05:57:24.964Z,19.66
2023-09-08T06:02:29.497Z,20.17
2023-09-08T06:07:32.813Z,19.71
2023-09-08T06:12:35.970Z,19.71
2023-09-08T06:17:40.600Z,19.35
2023-09-08T06:22:43.757Z,19.51
2023-09-08T06:27:47.837Z,19.86
2023-09-08T06:32:52.455Z,20.13
2023-09-08T06:37:55.992Z,20.28
2023-09-08T06:43:01.348Z,20.42
2023-09-08T06:48:19.823Z,20.87
2023-09-08T06:53:23.148Z,21.20
2023-09-08T06:58:26.424Z,21.35
2023-09-08T07:03:38.779Z,21.48
2023-09-08T07:08:45.233Z,21.64
2023-09-08T07:13:49.126Z,21.77
2023-09-08T07:18:53.860Z,21.90
2023-09-08T07:23:57.088Z,22.00
2023-09-08T07:29:00.568Z,22.42
2023-09-08T07:34:05.177Z,22.58
2023-09-08T07:39:08.871Z,22.75
2023-09-08T07:44:12.002Z,22.75
2023-09-08T07:49:16.703Z,22.77
2023-09-08T07:54:20.790Z,22.83
2023-09-08T07:59:24.096Z,22.73
2023-09-08T08:04:28.609Z,22.83
2023-09-08T08:09:31.644Z,22.76
2023-09-08T08:14:34.696Z,23.04
2023-09-08T08:19:39.063Z,22.94
2023-09-08T08:24:42.693Z,22.99
2023-09-08T08:29:45.755Z,23.12
2023-09-08T08:34:50.072Z,23.21
2023-09-08T08:39:53.246Z,23.23
2023-09-08T08:44:57.188Z,23.27
2023-09-08T08:50:02.194Z,23.18
2023-09-08T08:55:06.120Z,23.34
2023-09-08T09:00:11.525Z,23.37
2023-09-08T09:05:16.011Z,23.42
2023-09-08T09:10:19.562Z,23.49
2023-09-08T09:15:30.798Z,23.56
2023-09-08T09:20:35.231Z,23.57
2023-09-08T09:25:39.235Z,23.64
2023-09-08T09:30:49.953Z,23.71
2023-09-08T09:35:55.560Z,23.77
2023-09-08T09:40:59.443Z,23.83
2023-09-08T09:46:03.301Z,23.90
2023-09-08T09:51:19.690Z,23.91
2023-09-08T09:56:22.832Z,23.94
2023-09-08T10:01:27.066Z,23.98
2023-09-08T10:06:31.527Z,24.01
2023-09-08T10:11:36.731Z,24.06
2023-09-08T10:16:41.387Z,24.13
2023-09-08T10:21:47.953Z,24.14
2023-09-08T10:27:20.288Z,24.23
2023-09-08T10:32:30.004Z,24.27
2023-09-08T10:37:34.405Z,24.32
2023-09-08T10:42:37.606Z,24.36
2023-09-08T10:47:44.393Z,24.40
2023-09-08T10:52:53.232Z,24.38
2023-09-08T10:57:56.700Z,24.39
2023-09-08T11:03:01.630Z,24.43
2023-09-08T11:08:06.895Z,24.47
2023-09-08T11:13:09.901Z,24.52
2023-09-08T11:18:13.099Z,24.59
2023-09-08T11:23:17.586Z,24.64
2023-09-08T11:28:20.773Z,24.71
2023-09-08T11:33:26.148Z,24.84
2023-09-08T11:38:32.911Z,24.94
2023-09-08T11:43:36.240Z,25.03
2023-09-08T11:48:39.422Z,25.09
2023-09-08T11:53:43.934Z,25.20
2023-09-08T11:58:47.286Z,25.33
2023-09-08T12:03:54.111Z,25.42
2023-09-08T12:09:03.486Z,25.51
2023-09-08T12:14:08.992Z,25.58
2023-09-08T12:19:32.874Z,25.73
2023-09-08T12:24:58.240Z,25.81
2023-09-08T12:30:02.571Z,25.81
2023-09-08T12:35:06.338Z,25.83
2023-09-08T12:40:12.164Z,25.83
2023-09-08T12:45:15.260Z,25.89
2023-09-08T12:50:18.833Z,25.94
2023-09-08T12:55:23.059Z,26.04
2023-09-08T13:00:26.593Z,26.09
2023-09-08T13:05:29.666Z,26.36
2023-09-08T13:10:34.432Z,26.61
2023-09-08T13:15:37.524Z,26.91
2023-09-08T13:20:40.392Z,26.91
2023-09-08T13:25:45.775Z,27.18
2023-09-08T13:30:48.550Z,27.40
2023-09-08T13:35:51.346Z,27.38
2023-09-08T13:40:55.575Z,27.27
2023-09-08T13:46:04.144Z,27.37
2023-09-08T13:51:07.352Z,27.43
2023-09-08T13:56:14.305Z,27.91
2023-09-08T14:01:19.823Z,28.05
2023-09-08T14:06:29.669Z,28.20
2023-09-08T14:12:15.139Z,28.31
2023-09-08T14:16:58.440Z,28.36
2023-09-08T14:22:01.250Z,28.08
2023-09-08T14:27:08.544Z,28.22
2023-09-08T14:32:11.458Z,28.56
2023-09-08T14:37:14.443Z,28.99
2023-09-08T14:42:18.885Z,29.13
2023-09-08T14:47:21.865Z,29.44
2023-09-08T14:52:24.704Z,29.57
2023-09-08T14:57:29.073Z,29.77
2023-09-08T15:02:32.030Z,29.80
2023-09-08T15:07:35.012Z,30.02
2023-09-08T15:12:39.250Z,30.24
2023-09-08T15:17:42.204Z,30.32
2023-09-08T15:22:45.094Z,30.37
2023-09-08T15:27:49.374Z,30.03
2023-09-08T15:32:52.219Z,29.48
2023-09-08T15:37:54.975Z,29.43
2023-09-08T15:42:59.264Z,29.37
2023-09-08T15:48:03.644Z,29.47
2023-09-08T15:53:06.608Z,29.82
2023-09-08T15:58:11.876Z,29.41
2023-09-08T16:03:14.964Z,28.87
2023-09-08T16:08:17.942Z,29.04
2023-09-08T16:13:22.311Z,30.46
2023-09-08T16:18:25.784Z,30.69
2023-09-08T16:23:28.866Z,30.54
2023-09-08T16:28:33.181Z,30.27
2023-09-08T16:33:36.417Z,29.93
2023-09-08T16:38:39.338Z,29.42
2023-09-08T16:43:43.494Z,28.92
2023-09-08T16:48:46.308Z,28.52
2023-09-08T16:53:49.136Z,28.31
2023-09-08T16:58:53.265Z,28.01
2023-09-08T17:03:56.207Z,27.82
2023-09-08T17:08:59.224Z,27.55
2023-09-08T17:14:03.362Z,27.53
2023-09-08T17:19:06.281Z,27.44
2023-09-08T17:24:09.746Z,27.29
2023-09-08T17:29:14.007Z,27.26
2023-09-08T17:34:20.966Z,27.13
2023-09-08T17:39:23.884Z,27.08
2023-09-08T17:44:28.039Z,27.01
2023-09-08T17:49:30.936Z,26.93
2023-09-08T17:54:33.870Z,26.86
2023-09-08T17:59:38.034Z,26.82
2023-09-08T18:04:42.590Z,26.76
2023-09-08T18:09:45.577Z,26.71
2023-09-08T18:14:50.755Z,26.67
2023-09-08T18:19:53.556Z,26.60
2023-09-08T18:24:56.413Z,26.61
2023-09-08T18:30:00.558Z,26.68
2023-09-08T18:35:03.838Z,26.62
2023-09-08T18:40:11.164Z,26.61
2023-09-08T18:45:20.097Z,26.56
2023-09-08T18:50:22.963Z,26.57
2023-09-08T18:55:25.768Z,26.58
2023-09-08T19:00:29.941Z,26.55
2023-09-08T19:05:32.688Z,26.45
2023-09-08T19:10:35.529Z,26.46
2023-09-08T19:15:40.081Z,26.43
2023-09-08T19:20:42.897Z,26.37
2023-09-08T19:25:45.838Z,26.30
2023-09-08T19:30:51.407Z,26.36
2023-09-08T19:35:54.503Z,26.23
2023-09-08T19:41:04.034Z,26.08
2023-09-08T19:46:08.627Z,25.94
2023-09-08T19:51:11.571Z,25.77
2023-09-08T19:56:14.472Z,25.56
2023-09-08T20:01:19.480Z,25.61
2023-09-08T20:06:22.505Z,25.74
2023-09-08T20:11:27.533Z,25.61
2023-09-08T20:16:31.856Z,25.54
2023-09-08T20:21:34.761Z,25.58
2023-09-08T20:26:37.725Z,25.57
2023-09-08T20:31:41.942Z,25.52
2023-09-08T20:36:44.915Z,25.52
2023-09-08T20:41:48.783Z,25.52
2023-09-08T20:46:53.048Z,25.52
2023-09-08T20:51:55.911Z,25.51
2023-09-08T20:56:58.748Z,25.50
2023-09-08T21:02:03.016Z,25.51
2023-09-08T21:07:05.979Z,25.50
2023-09-08T21:12:09.309Z,25.51
2023-09-08T21:17:13.615Z,25.47
2023-09-08T21:22:16.430Z,25.43
2023-09-08T21:27:19.317Z,25.51
2023-09-08T21:32:24.449Z,25.46
2023-09-08T21:37:27.281Z,25.27
2023-09-08T21:42:30.084Z,25.28
2023-09-08T21:47:34.390Z,25.11
2023-09-08T21:52:39.517Z,25.15
2023-09-08T21:57:42.455Z,25.19
2023-09-08T22:02:46.783Z,25.31
2023-09-08T22:07:49.664Z,25.32
2023-09-08T22:12:52.501Z,25.27
2023-09-08T22:17:56.834Z,25.27
2023-09-08T22:22:59.653Z,25.27
2023-09-08T22:28:02.496Z,25.34
2023-09-08T22:33:07.769Z,25.34
2023-09-08T22:38:10.748Z,25.31
2023-09-08T22:43:13.648Z,25.27
2023-09-08T22:48:19.173Z,25.25
2023-09-08T22:53:22.095Z,25.30
2023-09-08T22:58:26.371Z,25.27
2023-09-08T23:03:30.653Z,25.34
2023-09-08T23:08:33.537Z,25.36
2023-09-08T23:13:36.708Z,25.30
2023-09-08T23:18:41.288Z,25.33
2023-09-08T23:23:44.138Z,25.27
2023-09-08T23:28:46.999Z,25.26
2023-09-08T23:33:51.119Z,25.32
2023-09-08T23:38:53.909Z,25.35
2023-09-08T23:43:56.808Z,25.30
2023-09-08T23:49:03.552Z,25.21
2023-09-08T23:54:06.685Z,25.27
2023-09-08T23:59:10.925Z,25.19
